createdAt,value
2017-07-08T00:01:26.389Z,17.58
2017-07-08T00:03:54.798Z,14.60
2017-07-08T00:06:22.465Z,17.52
2017-07-08T00:08:50.206Z,16.37
2017-07-08T00:11:17.843Z,18.30
2017-07-08T00:13:45.483Z,14.90
2017-07-08T00:16:13.200Z,14.03
2017-07-08T00:18:40.810Z,14.40
2017-07-08T00:21:08.463Z,18.33
2017-07-08T00:23:36.080Z,14.40
2017-07-08T00:26:03.753Z,14.70
2017-07-08T00:28:31.414Z,19.40
2017-07-08T00:30:59.804Z,17.03
2017-07-08T00:33:27.461Z,19.90
2017-07-08T00:35:55.106Z,21.25
2017-07-08T00:38:23.014Z,19.70
2017-07-08T00:40:51.422Z,14.87
2017-07-08T00:43:19.058Z,18.75
2017-07-08T00:45:46.744Z,16.27
2017-07-08T00:48:14.439Z,16.30
2017-07-08T00:50:44.506Z,14.23
2017-07-08T00:53:12.142Z,16.52
2017-07-08T00:55:39.799Z,16.02
2017-07-08T00:58:08.257Z,15.68
2017-07-08T01:00:35.915Z,15.82
2017-07-08T01:03:04.455Z,20.42
2017-07-08T01:05:32.108Z,17.85
2017-07-08T01:07:59.752Z,18.52
2017-07-08T01:10:27.435Z,15.00
2017-07-08T01:12:55.085Z,16.30
2017-07-08T01:15:23.521Z,17.30
2017-07-08T01:17:51.173Z,15.75
2017-07-08T01:20:18.815Z,19.67
2017-07-08T01:22:46.488Z,16.08
2017-07-08T01:25:14.905Z,15.30
2017-07-08T01:27:42.596Z,20.62
2017-07-08T01:30:11.008Z,20.40
2017-07-08T01:32:38.662Z,16.15
2017-07-08T01:35:06.333Z,18.85
2017-07-08T01:37:34.748Z,18.55
2017-07-08T01:40:02.544Z,15.20
2017-07-08T01:42:30.187Z,16.15
2017-07-08T01:44:57.816Z,14.60
2017-07-08T01:47:25.502Z,17.23
2017-07-08T01:49:53.390Z,14.07
2017-07-08T01:52:21.104Z,14.57
2017-07-08T01:54:49.515Z,15.05
2017-07-08T01:57:17.173Z,16.40
2017-07-08T01:59:44.844Z,19.75
2017-07-08T02:02:12.570Z,18.87
2017-07-08T02:04:40.253Z,16.40
2017-07-08T02:07:07.925Z,16.62
2017-07-08T02:09:35.578Z,17.90
2017-07-08T02:12:03.425Z,16.20
2017-07-08T02:14:31.060Z,21.92
2017-07-08T02:16:59.511Z,15.48
2017-07-08T02:19:27.917Z,19.33
2017-07-08T02:21:55.551Z,16.35
2017-07-08T02:24:23.480Z,18.40
2017-07-08T02:26:51.897Z,23.77
2017-07-08T02:29:19.560Z,20.20
2017-07-08T02:31:47.216Z,19.80
2017-07-08T02:34:14.847Z,16.25
2017-07-08T02:36:42.625Z,20.12
2017-07-08T02:39:10.268Z,17.48
2017-07-08T02:41:38.597Z,19.92
2017-07-08T02:44:06.247Z,16.10
2017-07-08T02:46:34.051Z,15.65
2017-07-08T02:49:01.745Z,21.90
2017-07-08T02:51:29.387Z,18.27
2017-07-08T02:53:57.071Z,16.80
2017-07-08T02:56:24.714Z,20.02
2017-07-08T02:58:52.351Z,21.80
2017-07-08T03:01:20.106Z,21.67
2017-07-08T03:03:47.745Z,16.30
2017-07-08T03:06:15.425Z,18.45
2017-07-08T03:08:43.069Z,22.48
2017-07-08T03:11:10.709Z,28.25
2017-07-08T03:13:39.861Z,19.77
2017-07-08T03:16:07.532Z,21.50
2017-07-08T03:18:35.215Z,21.37
2017-07-08T03:21:02.973Z,31.40
2017-07-08T03:23:30.625Z,27.33
2017-07-08T03:25:58.304Z,28.75
2017-07-08T03:28:25.943Z,25.77
2017-07-08T03:30:53.608Z,30.45
2017-07-08T03:33:21.267Z,31.60
2017-07-08T03:35:49.667Z,36.00
2017-07-08T03:38:17.356Z,33.85
2017-07-08T03:40:44.988Z,30.48
2017-07-08T03:43:12.653Z,29.90
2017-07-08T03:45:40.314Z,27.83
2017-07-08T03:48:07.993Z,28.17
2017-07-08T03:50:35.673Z,23.70
2017-07-08T03:53:03.494Z,22.45
2017-07-08T03:55:31.145Z,23.95
2017-07-08T03:57:58.823Z,24.77
2017-07-08T04:00:26.468Z,27.85
2017-07-08T04:02:54.115Z,25.62
2017-07-08T04:05:21.841Z,24.55
2017-07-08T04:07:49.472Z,28.12
2017-07-08T04:10:17.113Z,21.15
2017-07-08T04:12:44.792Z,28.75
2017-07-08T04:15:12.464Z,27.62
2017-07-08T04:17:40.141Z,32.78
2017-07-08T04:20:08.592Z,30.73
2017-07-08T04:22:36.202Z,33.17
2017-07-08T04:25:04.099Z,33.63
2017-07-08T04:27:31.772Z,36.13
2017-07-08T04:29:59.428Z,27.55
2017-07-08T04:32:27.061Z,27.85
2017-07-08T04:34:54.722Z,29.67
2017-07-08T04:37:23.258Z,33.20
2017-07-08T04:39:50.882Z,35.23
2017-07-08T04:42:18.533Z,27.67
2017-07-08T04:44:46.165Z,28.63
2017-07-08T04:47:13.807Z,31.00
2017-07-08T04:49:41.429Z,33.43
2017-07-08T04:52:09.049Z,31.67
2017-07-08T04:54:36.702Z,27.27
2017-07-08T04:57:05.079Z,27.73
2017-07-08T04:59:33.545Z,28.73
2017-07-08T05:02:01.928Z,32.63
2017-07-08T05:04:29.549Z,29.50
2017-07-08T05:06:57.196Z,28.87
2017-07-08T05:09:24.821Z,28.37
2017-07-08T05:11:52.531Z,27.93
2017-07-08T05:14:20.167Z,32.43
2017-07-08T05:16:47.806Z,26.40
2017-07-08T05:19:15.447Z,30.13
2017-07-08T05:21:43.135Z,27.07
2017-07-08T05:24:11.042Z,24.30
2017-07-08T05:26:38.653Z,27.27
2017-07-08T05:29:06.273Z,30.20
2017-07-08T05:31:33.964Z,30.10
2017-07-08T05:34:02.375Z,26.67
2017-07-08T05:36:30.944Z,25.80
2017-07-08T05:38:58.577Z,29.03
2017-07-08T05:41:26.185Z,29.17
2017-07-08T05:43:54.592Z,30.47
2017-07-08T05:46:22.231Z,28.10
2017-07-08T05:48:49.884Z,23.87
2017-07-08T05:51:17.517Z,30.00
2017-07-08T05:53:45.154Z,27.67
2017-07-08T05:56:12.828Z,29.20
2017-07-08T05:58:40.441Z,29.60
2017-07-08T06:01:08.857Z,25.93
2017-07-08T06:03:36.471Z,29.17
2017-07-08T06:06:04.087Z,25.57
2017-07-08T06:08:32.595Z,27.37
2017-07-08T06:11:00.217Z,23.47
2017-07-08T06:13:27.854Z,24.17
2017-07-08T06:15:55.466Z,22.47
2017-07-08T06:18:23.142Z,27.73
2017-07-08T06:20:50.802Z,26.07
2017-07-08T06:23:18.549Z,23.70
2017-07-08T06:25:46.209Z,23.73
2017-07-08T06:28:13.831Z,22.37
2017-07-08T06:30:41.712Z,19.10
2017-07-08T06:33:09.355Z,16.67
2017-07-08T06:35:37.754Z,19.20
2017-07-08T06:38:05.403Z,17.63
2017-07-08T06:40:33.043Z,19.00
2017-07-08T06:43:00.689Z,19.63
2017-07-08T06:45:28.357Z,17.43
2017-07-08T06:47:55.968Z,14.80
2017-07-08T06:50:23.637Z,13.47
2017-07-08T06:52:51.247Z,19.50
2017-07-08T06:55:18.868Z,12.13
2017-07-08T06:57:47.289Z,13.70
2017-07-08T07:00:14.908Z,15.80
2017-07-08T07:02:42.644Z,16.87
2017-07-08T07:05:10.470Z,15.90
2017-07-08T07:07:38.105Z,14.23
2017-07-08T07:10:05.761Z,13.33
2017-07-08T07:12:34.180Z,12.20
2017-07-08T07:15:01.819Z,15.27
2017-07-08T07:17:29.435Z,18.23
2017-07-08T07:19:57.080Z,18.40
2017-07-08T07:22:24.824Z,17.10
2017-07-08T07:24:53.208Z,17.63
2017-07-08T07:27:21.011Z,16.67
2017-07-08T07:29:48.676Z,17.00
2017-07-08T07:32:17.065Z,16.53
2017-07-08T07:34:44.733Z,17.20
2017-07-08T07:37:12.420Z,18.20
2017-07-08T07:39:40.189Z,12.60
2017-07-08T07:42:07.798Z,12.80
2017-07-08T07:44:35.414Z,15.23
2017-07-08T07:47:03.139Z,14.60
2017-07-08T07:49:30.753Z,13.33
2017-07-08T07:51:58.391Z,14.57
2017-07-08T07:54:26.014Z,11.03
2017-07-08T07:56:53.621Z,15.00
2017-07-08T07:59:21.263Z,14.17
2017-07-08T08:01:48.905Z,14.63
2017-07-08T08:04:17.327Z,13.87
2017-07-08T08:06:45.628Z,13.20
2017-07-08T08:09:14.112Z,13.73
2017-07-08T08:11:41.775Z,16.80
2017-07-08T08:14:09.397Z,14.90
2017-07-08T08:16:37.049Z,17.73
2017-07-08T08:19:04.661Z,14.47
2017-07-08T08:21:32.278Z,16.70
2017-07-08T08:24:00.953Z,15.80
2017-07-08T08:26:28.559Z,15.97
2017-07-08T08:28:56.209Z,13.80
2017-07-08T08:31:23.846Z,13.17
2017-07-08T08:33:52.230Z,11.10
2017-07-08T08:36:19.889Z,14.63
2017-07-08T08:38:47.506Z,12.60
2017-07-08T08:41:15.168Z,13.80
2017-07-08T08:43:42.805Z,13.80
2017-07-08T08:46:10.451Z,13.47
2017-07-08T08:48:38.089Z,11.80
2017-07-08T08:51:05.696Z,16.30
2017-07-08T08:53:33.730Z,18.60
2017-07-08T08:56:01.344Z,17.53
2017-07-08T08:58:28.959Z,16.13
2017-07-08T09:00:56.593Z,13.57
2017-07-08T09:03:24.203Z,12.80
2017-07-08T09:05:51.858Z,11.50
2017-07-08T09:08:19.498Z,10.63
2017-07-08T09:10:47.117Z,14.90
2017-07-08T09:13:14.769Z,15.70
2017-07-08T09:15:42.393Z,12.07
2017-07-08T09:18:10.043Z,16.47
2017-07-08T09:20:38.441Z,12.87
2017-07-08T09:23:06.048Z,14.13
2017-07-08T09:25:34.505Z,12.47
2017-07-08T09:28:02.114Z,12.00
2017-07-08T09:30:29.760Z,13.33
2017-07-08T09:32:57.376Z,17.47
2017-07-08T09:35:24.990Z,15.27
2017-07-08T09:37:53.533Z,14.90
2017-07-08T09:40:21.172Z,12.37
2017-07-08T09:42:48.827Z,12.90
2017-07-08T09:45:16.445Z,13.57
2017-07-08T09:47:44.119Z,14.30
2017-07-08T09:50:11.774Z,14.53
2017-07-08T09:52:39.407Z,14.43
2017-07-08T09:55:07.064Z,14.10
2017-07-08T09:57:34.674Z,12.37
2017-07-08T10:00:02.278Z,10.77
2017-07-08T10:02:30.693Z,11.70
2017-07-08T10:04:58.296Z,12.10
2017-07-08T10:07:26.697Z,9.63
2017-07-08T10:09:54.316Z,11.07
2017-07-08T10:12:21.944Z,11.17
2017-07-08T10:14:50.395Z,11.60
2017-07-08T10:17:18.018Z,10.30
2017-07-08T10:19:45.659Z,11.00
2017-07-08T10:22:13.323Z,11.50
2017-07-08T10:24:40.923Z,12.90
2017-07-08T10:27:08.582Z,14.93
2017-07-08T10:29:36.186Z,13.00
2017-07-08T10:32:04.618Z,12.23
2017-07-08T10:34:32.217Z,10.37
2017-07-08T10:36:59.817Z,10.47
2017-07-08T10:39:27.470Z,13.90
2017-07-08T10:41:55.087Z,13.00
2017-07-08T10:44:22.753Z,12.87
2017-07-08T10:46:50.360Z,13.30
2017-07-08T10:49:17.982Z,13.70
2017-07-08T10:51:46.405Z,13.33
2017-07-08T10:54:14.132Z,11.30
2017-07-08T10:56:41.769Z,11.33
2017-07-08T10:59:09.376Z,11.03
2017-07-08T11:01:37.772Z,10.93
2017-07-08T11:04:05.426Z,9.13
2017-07-08T11:06:33.071Z,11.10
2017-07-08T11:09:00.716Z,9.93
2017-07-08T11:11:28.334Z,12.27
2017-07-08T11:13:56.695Z,9.20
2017-07-08T11:16:25.116Z,8.90
2017-07-08T11:18:52.767Z,10.13
2017-07-08T11:21:20.404Z,9.53
2017-07-08T11:23:48.012Z,9.97
2017-07-08T11:26:16.392Z,11.50
2017-07-08T11:28:44.137Z,9.77
2017-07-08T11:31:11.752Z,9.73
2017-07-08T11:33:40.156Z,8.90
2017-07-08T11:36:07.767Z,8.90
2017-07-08T11:38:35.401Z,9.00
2017-07-08T11:41:03.115Z,9.93
2017-07-08T11:43:30.726Z,7.77
2017-07-08T11:45:58.428Z,8.67
2017-07-08T11:48:26.041Z,9.50
2017-07-08T11:50:53.676Z,8.33
2017-07-08T11:53:21.402Z,7.40
2017-07-08T11:55:48.995Z,8.27
2017-07-08T11:58:16.641Z,8.10
2017-07-08T12:00:44.320Z,9.07
2017-07-08T12:03:12.011Z,8.50
2017-07-08T12:05:39.662Z,9.03
2017-07-08T12:08:07.274Z,9.10
2017-07-08T12:10:34.919Z,9.80
2017-07-08T12:13:03.383Z,8.73
2017-07-08T12:15:31.761Z,7.33
2017-07-08T12:18:00.165Z,8.70
2017-07-08T12:20:27.796Z,8.37
2017-07-08T12:22:55.427Z,8.73
2017-07-08T12:25:23.091Z,9.50
2017-07-08T12:27:50.697Z,8.97
2017-07-08T12:30:19.112Z,8.73
2017-07-08T12:32:46.710Z,9.17
2017-07-08T12:35:15.136Z,9.73
2017-07-08T12:37:42.831Z,8.30
2017-07-08T12:40:11.196Z,10.13
2017-07-08T12:42:38.926Z,11.20
2017-07-08T12:45:06.537Z,9.30
2017-07-08T12:47:34.170Z,9.40
2017-07-08T12:50:01.773Z,10.30
2017-07-08T12:52:30.142Z,9.13
2017-07-08T12:54:58.543Z,11.60
2017-07-08T12:57:26.150Z,10.30
2017-07-08T12:59:53.798Z,10.20
2017-07-08T13:02:22.315Z,9.97
2017-07-08T13:04:49.916Z,9.60
2017-07-08T13:07:18.351Z,10.20
2017-07-08T13:09:45.964Z,10.93
2017-07-08T13:12:13.637Z,10.97
2017-07-08T13:14:42.043Z,9.17
2017-07-08T13:17:09.643Z,9.20
2017-07-08T13:19:37.276Z,9.23
2017-07-08T13:22:04.886Z,8.13
2017-07-08T13:24:32.562Z,7.70
2017-07-08T13:27:00.177Z,8.47
2017-07-08T13:29:27.795Z,6.70
2017-07-08T13:31:55.427Z,8.57
2017-07-08T13:34:23.110Z,8.40
2017-07-08T13:36:50.748Z,7.47
2017-07-08T13:39:19.125Z,7.53
2017-07-08T13:41:46.738Z,7.47
2017-07-08T13:44:14.401Z,6.93
2017-07-08T13:46:42.790Z,7.53
2017-07-08T13:49:10.446Z,8.10
2017-07-08T13:51:38.053Z,7.63
2017-07-08T13:54:06.441Z,8.07
2017-07-08T13:56:34.071Z,8.63
2017-07-08T13:59:02.458Z,8.23
2017-07-08T14:01:30.948Z,8.90
2017-07-08T14:03:58.556Z,8.30
2017-07-08T14:06:26.170Z,8.80
2017-07-08T14:08:53.806Z,8.23
2017-07-08T14:11:21.435Z,8.60
2017-07-08T14:13:49.076Z,8.70
2017-07-08T14:16:16.692Z,8.70
2017-07-08T14:18:44.443Z,9.63
2017-07-08T14:21:12.071Z,8.57
2017-07-08T14:23:40.666Z,8.90
2017-07-08T14:26:08.309Z,8.80
2017-07-08T14:28:35.917Z,9.50
2017-07-08T14:31:03.515Z,9.00
2017-07-08T14:33:31.192Z,10.27
2017-07-08T14:35:58.798Z,8.97
2017-07-08T14:38:26.440Z,10.60
2017-07-08T14:40:54.091Z,9.10
2017-07-08T14:43:21.707Z,10.00
2017-07-08T14:45:50.120Z,9.33
2017-07-08T14:48:17.739Z,9.23
2017-07-08T14:50:45.374Z,10.73
2017-07-08T14:53:13.749Z,9.97
2017-07-08T14:55:41.346Z,9.33
2017-07-08T14:58:09.396Z,9.60
2017-07-08T15:00:37.001Z,9.97
2017-07-08T15:03:04.649Z,9.83
2017-07-08T15:05:32.252Z,9.80
2017-07-08T15:07:59.852Z,10.37
2017-07-08T15:10:27.489Z,10.87
2017-07-08T15:12:55.095Z,10.80
2017-07-08T15:15:23.510Z,10.23
2017-07-08T15:17:51.137Z,10.10
2017-07-08T15:20:18.752Z,10.83
2017-07-08T15:22:46.473Z,10.63
2017-07-08T15:25:14.096Z,8.83
2017-07-08T15:27:41.737Z,9.77
2017-07-08T15:30:09.349Z,8.63
2017-07-08T15:32:37.728Z,8.20
2017-07-08T15:35:05.389Z,8.90
2017-07-08T15:37:33.046Z,7.80
2017-07-08T15:40:00.693Z,7.27
2017-07-08T15:42:28.319Z,7.97
2017-07-08T15:44:55.934Z,8.60
2017-07-08T15:47:23.567Z,7.63
2017-07-08T15:49:51.194Z,8.23
2017-07-08T15:52:18.860Z,7.90
2017-07-08T15:54:46.459Z,9.43
2017-07-08T15:57:14.101Z,7.23
2017-07-08T15:59:41.745Z,6.80
2017-07-08T16:02:09.353Z,7.87
2017-07-08T16:04:37.001Z,8.00
2017-07-08T16:07:04.617Z,7.60
2017-07-08T16:09:32.276Z,7.27
2017-07-08T16:11:59.914Z,7.10
2017-07-08T16:14:27.528Z,7.23
2017-07-08T16:16:55.179Z,6.83
2017-07-08T16:19:22.818Z,5.90
2017-07-08T16:21:50.437Z,6.83
2017-07-08T16:24:18.845Z,6.40
2017-07-08T16:26:46.461Z,6.33
2017-07-08T16:29:14.213Z,7.57
2017-07-08T16:31:41.847Z,6.60
2017-07-08T16:34:10.227Z,5.60
2017-07-08T16:36:37.873Z,5.97
2017-07-08T16:39:05.494Z,5.67
2017-07-08T16:41:33.925Z,5.70
2017-07-08T16:44:01.534Z,5.77
2017-07-08T16:46:29.147Z,5.50
2017-07-08T16:48:56.788Z,5.60
2017-07-08T16:51:24.420Z,5.40
2017-07-08T16:53:52.055Z,5.47
2017-07-08T16:56:19.659Z,6.37
2017-07-08T16:58:47.274Z,5.43
2017-07-08T17:01:15.685Z,6.03
2017-07-08T17:03:43.310Z,5.50
2017-07-08T17:06:10.953Z,5.77
2017-07-08T17:08:39.337Z,5.70
2017-07-08T17:11:06.947Z,5.40
2017-07-08T17:13:34.589Z,5.20
2017-07-08T17:16:02.207Z,6.53
2017-07-08T17:18:29.849Z,5.00
2017-07-08T17:20:57.463Z,5.73
2017-07-08T17:23:25.076Z,5.70
2017-07-08T17:25:53.477Z,5.57
2017-07-08T17:28:21.084Z,5.40
2017-07-08T17:30:49.487Z,5.40
2017-07-08T17:33:17.121Z,5.93
2017-07-08T17:35:44.733Z,6.50
2017-07-08T17:38:12.408Z,5.47
2017-07-08T17:40:40.145Z,5.90
2017-07-08T17:43:08.568Z,6.60
2017-07-08T17:45:36.177Z,6.53
2017-07-08T17:48:03.779Z,6.50
2017-07-08T17:50:31.429Z,6.70
2017-07-08T17:52:59.045Z,6.90
2017-07-08T17:55:26.673Z,6.97
2017-07-08T17:57:54.419Z,6.67
2017-07-08T18:00:22.030Z,7.63
2017-07-08T18:02:49.683Z,7.83
2017-07-08T18:05:17.309Z,7.37
2017-07-08T18:07:44.956Z,7.60
2017-07-08T18:10:12.592Z,9.50
2017-07-08T18:12:40.226Z,7.73
2017-07-08T18:15:07.885Z,8.53
2017-07-08T18:17:35.485Z,7.77
2017-07-08T18:20:03.249Z,7.67
2017-07-08T18:22:30.865Z,7.50
2017-07-08T18:24:58.474Z,7.17
2017-07-08T18:27:26.126Z,7.33
2017-07-08T18:29:53.723Z,7.67
2017-07-08T18:32:21.365Z,7.77
2017-07-08T18:34:48.970Z,7.70
2017-07-08T18:37:17.366Z,8.13
2017-07-08T18:39:45.004Z,7.60
2017-07-08T18:42:12.614Z,8.20
2017-07-08T18:44:40.255Z,11.30
2017-07-08T18:47:07.879Z,12.93
2017-07-08T18:49:35.524Z,13.97
2017-07-08T18:52:03.304Z,19.40
2017-07-08T18:54:30.903Z,18.23
2017-07-08T18:56:58.569Z,16.20
2017-07-08T18:59:26.187Z,15.17
2017-07-08T19:01:53.802Z,12.93
2017-07-08T19:04:21.451Z,10.27
2017-07-08T19:06:49.052Z,9.67
2017-07-08T19:09:16.692Z,9.33
2017-07-08T19:11:44.431Z,8.67
2017-07-08T19:14:12.062Z,8.80
2017-07-08T19:16:39.697Z,8.33
2017-07-08T19:19:07.303Z,9.57
2017-07-08T19:21:34.925Z,9.30
2017-07-08T19:24:02.594Z,10.07
2017-07-08T19:26:30.211Z,8.87
2017-07-08T19:28:57.838Z,10.00
2017-07-08T19:31:25.475Z,9.70
2017-07-08T19:33:53.091Z,9.10
2017-07-08T19:36:20.723Z,8.90
2017-07-08T19:38:48.371Z,10.83
2017-07-08T19:41:15.981Z,11.00
2017-07-08T19:43:43.685Z,10.87
2017-07-08T19:46:12.095Z,11.27
2017-07-08T19:48:39.698Z,10.93
2017-07-08T19:51:07.318Z,10.80
2017-07-08T19:53:34.962Z,9.67
2017-07-08T19:56:02.592Z,10.47
2017-07-08T19:58:30.221Z,10.03
2017-07-08T20:00:57.859Z,11.17
2017-07-08T20:03:25.464Z,10.80
2017-07-08T20:05:53.851Z,10.40
2017-07-08T20:08:21.520Z,12.18
2017-07-08T20:10:49.127Z,10.67
2017-07-08T20:13:16.736Z,11.57
2017-07-08T20:15:44.436Z,11.33
2017-07-08T20:18:12.839Z,12.10
2017-07-08T20:20:40.457Z,12.50
2017-07-08T20:23:08.105Z,12.63
2017-07-08T20:25:35.743Z,11.23
2017-07-08T20:28:03.437Z,11.23
2017-07-08T20:30:31.089Z,11.23
2017-07-08T20:32:58.706Z,15.33
2017-07-08T20:35:26.357Z,14.27
2017-07-08T20:37:54.080Z,14.33
2017-07-08T20:40:21.716Z,12.20
2017-07-08T20:42:50.101Z,12.40
2017-07-08T20:45:18.674Z,15.13
2017-07-08T20:47:46.317Z,12.18
2017-07-08T20:50:13.981Z,13.80
2017-07-08T20:52:41.645Z,14.67
2017-07-08T20:55:09.294Z,16.65
2017-07-08T20:57:36.931Z,14.73
2017-07-08T21:00:04.624Z,14.10
2017-07-08T21:02:32.259Z,13.68
2017-07-08T21:04:59.918Z,12.90
2017-07-08T21:07:27.603Z,14.20
2017-07-08T21:09:55.593Z,13.82
2017-07-08T21:12:24.088Z,14.07
2017-07-08T21:14:51.769Z,14.77
2017-07-08T21:17:19.409Z,12.80
2017-07-08T21:19:47.039Z,13.05
2017-07-08T21:22:14.715Z,14.02
2017-07-08T21:24:42.358Z,13.60
2017-07-08T21:27:10.167Z,14.23
2017-07-08T21:29:37.842Z,15.43
2017-07-08T21:32:05.481Z,14.35
2017-07-08T21:34:33.244Z,13.07
2017-07-08T21:37:00.919Z,15.52
2017-07-08T21:39:28.571Z,14.50
2017-07-08T21:41:56.211Z,15.45
2017-07-08T21:44:23.957Z,13.10
2017-07-08T21:46:51.594Z,12.37
2017-07-08T21:49:19.240Z,13.57
2017-07-08T21:51:46.915Z,13.75
2017-07-08T21:54:15.327Z,12.77
2017-07-08T21:56:43.032Z,16.30
2017-07-08T21:59:11.460Z,15.65
2017-07-08T22:01:39.109Z,16.12
2017-07-08T22:04:06.762Z,15.85
2017-07-08T22:06:34.535Z,14.77
2017-07-08T22:09:03.026Z,14.10
2017-07-08T22:11:30.663Z,13.77
2017-07-08T22:13:59.095Z,13.07
2017-07-08T22:16:26.728Z,13.73
2017-07-08T22:18:54.494Z,13.98
2017-07-08T22:21:22.187Z,14.60
2017-07-08T22:23:49.816Z,13.90
2017-07-08T22:26:18.286Z,12.80
2017-07-08T22:28:45.923Z,15.40
2017-07-08T22:31:14.443Z,16.37
2017-07-08T22:33:42.071Z,14.80
2017-07-08T22:36:09.762Z,16.25
2017-07-08T22:38:37.395Z,13.70
2017-07-08T22:41:05.050Z,14.10
2017-07-08T22:43:32.733Z,16.20
2017-07-08T22:46:00.384Z,16.45
2017-07-08T22:48:28.015Z,17.55
2017-07-08T22:50:55.703Z,16.52
2017-07-08T22:53:23.500Z,15.70
2017-07-08T22:55:51.136Z,15.57
2017-07-08T22:58:18.795Z,13.95
2017-07-08T23:00:47.210Z,15.68
2017-07-08T23:03:14.835Z,14.90
2017-07-08T23:05:42.588Z,14.23
2017-07-08T23:08:10.228Z,15.18
2017-07-08T23:10:37.867Z,15.25
2017-07-08T23:13:05.525Z,15.45
2017-07-08T23:15:33.348Z,14.20
2017-07-08T23:18:01.824Z,14.23
2017-07-08T23:20:29.495Z,14.13
2017-07-08T23:22:57.147Z,15.70
2017-07-08T23:25:24.796Z,17.05
2017-07-08T23:27:52.619Z,15.43
2017-07-08T23:30:21.024Z,16.15
2017-07-08T23:32:48.663Z,17.77
2017-07-08T23:35:16.322Z,18.42
2017-07-08T23:37:44.088Z,17.75
2017-07-08T23:40:11.727Z,16.30
2017-07-08T23:42:39.401Z,18.30
2017-07-08T23:45:07.045Z,16.50
2017-07-08T23:47:34.691Z,17.25
2017-07-08T23:50:02.366Z,18.42
2017-07-08T23:52:30.955Z,16.05
2017-07-08T23:54:58.597Z,16.73
2017-07-08T23:57:26.262Z,15.68
2017-07-08T23:59:54.153Z,16.67
